This demonstration page uses our WeatherBlox Daily Observations layout. Learn more.

41.55636, -103.73856

Hourly Observations for May 15, 2019

Temp ( °F °C ) Dew Point ( °F °C ) Humidity (%) Winds ( mph kmh ) Pressure ( in mb ) Visibility ( mi km ) Precip ( " mm )
12:58 am 00:58 undefined 68 19.8 45 7 44 44 WNW 12 19 29.9 1013 10 16.0934 0 0
1:58 am 01:58 undefined 60 15.7 45 7.4 58 58 SW 14 22 29.95 1014 10 16.0934 0 0
2:58 am 02:58 undefined 59 14.8 44 6.8 59 59 SSW 9 15 29.94 1014 10 16.0934 0 0
3:58 am 03:58 undefined 57 14.1 45 7 63 63 SW 14 22 29.94 1014 10 16.0934 0 0
4:59 am 04:59 undefined 54 12.2 43 6.2 67 67 SW 13 20 29.92 1013 10 16.0934 0 0
5:58 am 05:58 undefined 55 12.6 42 5.4 62 62 SW 16 26 29.9 1013 10 16.0934 0 0
6:58 am 06:58 undefined 53 11.6 41 4.9 64 64 W 12 19 29.89 1012 10 16.0934 0 0
7:58 am 07:58 undefined 53 11.7 40 4.6 62 62 W 12 19 29.88 1012 10 16.0934 0 0
8:58 am 08:58 undefined 49 9.2 40 4.2 71 71 W 14 22 29.88 1012 10 16.0934 0 0
9:58 am 09:58 undefined 49 9.6 39 4 68 68 W 7 11 29.89 1012 10 16.0934 0 0
10:58 am 10:58 undefined 52 11.3 38 3.4 59 59 WSW 13 20 29.88 1012 10 16.0934 0 0
11:58 am 11:58 undefined 53 11.5 38 3.6 59 59 WSW 14 22 29.88 1012 10 16.0934 0 0
12:58 pm 12:58 undefined 56 13.6 42 5.3 58 58 WSW 12 19 29.9 1013 10 16.0934 0 0
1:58 pm 13:58 undefined 63 17.3 42 5.7 47 47 WSW 14 22 29.91 1013 10 16.0934 0 0
2:58 pm 14:58 undefined 69 20.4 41 5.1 37 37 WSW 17 28 29.9 1013 10 16.0934 0 0
3:58 pm 15:58 undefined 73 22.6 38 3.2 28 28 W 10 17 29.88 1012 10 16.0934 0 0
4:58 pm 16:58 undefined 75 23.8 38 3.3 26 26 WSW 9 15 29.87 1011 10 16.0934 0 0
5:58 pm 17:58 undefined 77 25.2 33 0.6 20 20 SW 7 11 29.84 1010 10 16.0934 0 0
6:58 pm 18:58 undefined 78 25.6 32 0.1 19 19 WSW 7 11 29.82 1010 10 16.0934 0 0
7:58 pm 19:58 undefined 76 24.4 37 2.6 24 24 NW 5 7 29.8 1009 10 16.0934 0 0
8:58 pm 20:58 undefined 79 25.9 35 1.8 21 21 SSE 12 19 29.81 1009 10 16.0934 0 0
9:58 pm 21:58 undefined 73 22.8 40 4.2 30 30 N 5 7 29.83 1010 10 16.0934 0 0
10:58 pm 22:58 undefined 74 23.3 39 4 29 29 N 6 9 29.8 1009 10 16.0934 0 0
11:58 pm 23:58 undefined 74 23.2 36 2 25 25 SE 3 6 29.78 1008 10 16.0934 0 0

Powered by AerisWeather